Terminal Aerodrome Forecast
Issued by NWS Wilmington, OH

Current Version | Previous Version | Graphics & Text | Print | Product List | Glossary On
Versions: 1 2 3 4 5 6 7 8 9 10 11 12 13 14 15 16 17 18 19 20 21 22 23 24 25 26 27 28 29 30 31 32 33 34
275
FTUS41 KILN 161014 AAB
TAFDAY
TAF AMD
KDAY 161014Z 1610/1706 11006KT 4SM BR BKN005 OVC026
     FM161500 12005KT 2SM BR OVC007
     FM161800 13006KT 4SM BR OVC012
     FM170000 16008KT P6SM VCSH OVC008=

USA.gov is the U.S. government's official web portal to all federal, state and local government web resources and services.